createdAt,value
2023-08-01T00:01:07.663Z,3.00
2023-08-01T00:03:36.345Z,2.65
2023-08-01T00:06:05.066Z,2.45
2023-08-01T00:08:33.530Z,2.70
2023-08-01T00:11:02.132Z,3.25
2023-08-01T00:13:30.788Z,3.38
2023-08-01T00:16:07.567Z,5.22
2023-08-01T00:18:37.372Z,3.45
2023-08-01T00:21:07.849Z,6.22
2023-08-01T00:23:37.085Z,9.40
2023-08-01T00:26:06.022Z,9.60
2023-08-01T00:28:34.764Z,9.52
2023-08-01T00:31:13.307Z,11.45
2023-08-01T00:33:42.002Z,11.60
2023-08-01T00:36:13.685Z,12.05
2023-08-01T00:38:43.487Z,9.65
2023-08-01T00:41:13.000Z,5.10
2023-08-01T00:43:41.751Z,4.78
2023-08-01T00:46:11.438Z,4.82
2023-08-01T00:48:40.212Z,4.85
2023-08-01T00:51:12.268Z,5.30
2023-08-01T00:53:41.397Z,6.33
2023-08-01T00:56:10.146Z,5.97
2023-08-01T00:58:38.783Z,6.35
2023-08-01T01:01:07.442Z,5.72
2023-08-01T01:03:36.241Z,5.68
2023-08-01T01:06:20.344Z,5.70
2023-08-01T01:08:49.558Z,5.03
2023-08-01T01:11:18.318Z,5.70
2023-08-01T01:13:47.021Z,5.38
2023-08-01T01:16:15.666Z,5.45
2023-08-01T01:18:44.335Z,4.70
2023-08-01T01:23:59.124Z,4.65
2023-08-01T01:26:28.965Z,4.20
2023-08-01T01:28:58.039Z,4.25
2023-08-01T01:31:27.145Z,5.13
2023-08-01T01:33:57.169Z,4.88
2023-08-01T01:36:25.767Z,5.20
2023-08-01T01:38:54.256Z,5.22
2023-08-01T01:41:22.872Z,5.43
2023-08-01T01:43:51.620Z,4.93
2023-08-01T01:46:20.233Z,5.70
2023-08-01T01:48:48.864Z,5.10
2023-08-01T01:51:17.428Z,5.13
2023-08-01T01:53:45.844Z,5.07
2023-08-01T01:56:14.445Z,4.95
2023-08-01T01:58:43.038Z,5.18
2023-08-01T02:01:11.800Z,5.03
2023-08-01T02:03:40.438Z,5.03
2023-08-01T02:06:08.998Z,4.38
2023-08-01T02:08:37.482Z,5.13
2023-08-01T02:11:06.395Z,4.35
2023-08-01T02:13:36.497Z,4.88
2023-08-01T02:16:05.113Z,4.85
2023-08-01T02:18:34.142Z,4.70
2023-08-01T02:21:02.753Z,5.10
2023-08-01T02:23:31.532Z,4.90
2023-08-01T02:26:00.331Z,4.50
2023-08-01T02:28:28.792Z,4.70
2023-08-01T02:30:57.426Z,4.55
2023-08-01T02:33:26.236Z,5.15
2023-08-01T02:35:54.995Z,4.95
2023-08-01T02:38:23.683Z,4.05
2023-08-01T02:40:52.136Z,4.00
2023-08-01T02:43:20.753Z,3.72
2023-08-01T02:45:49.360Z,3.83
2023-08-01T02:48:19.595Z,4.00
2023-08-01T02:50:48.784Z,4.15
2023-08-01T02:53:17.908Z,4.57
2023-08-01T02:55:48.867Z,4.18
2023-08-01T02:58:17.410Z,4.10
2023-08-01T03:00:45.973Z,3.92
2023-08-01T03:03:14.580Z,4.07
2023-08-01T03:05:43.238Z,4.28
2023-08-01T03:08:11.770Z,4.25
2023-08-01T03:10:40.319Z,4.43
2023-08-01T03:13:08.927Z,4.10
2023-08-01T03:15:37.497Z,4.60
2023-08-01T03:18:06.553Z,4.30
2023-08-01T03:20:35.192Z,3.88
2023-08-01T03:23:03.851Z,4.70
2023-08-01T03:25:32.843Z,3.90
2023-08-01T03:28:01.706Z,4.55
2023-08-01T03:30:30.435Z,4.30
2023-08-01T03:32:58.839Z,4.38
2023-08-01T03:35:27.417Z,4.85
2023-08-01T03:37:55.955Z,5.15
2023-08-01T03:40:24.556Z,4.60
2023-08-01T03:42:52.976Z,4.30
2023-08-01T03:45:21.655Z,5.35
2023-08-01T03:47:50.314Z,4.40
2023-08-01T03:50:18.938Z,4.45
2023-08-01T03:52:47.818Z,4.57
2023-08-01T03:55:16.460Z,4.60
2023-08-01T03:57:44.635Z,5.07
2023-08-01T04:00:15.996Z,4.88
2023-08-01T04:02:47.580Z,4.88
2023-08-01T04:05:17.759Z,4.78
2023-08-01T04:07:46.269Z,5.00
2023-08-01T04:10:14.822Z,5.70
2023-08-01T04:12:44.835Z,5.35
2023-08-01T04:15:13.488Z,5.63
2023-08-01T04:17:42.044Z,5.70
2023-08-01T04:20:11.026Z,5.47
2023-08-01T04:22:39.793Z,5.80
2023-08-01T04:25:08.701Z,5.68
2023-08-01T04:27:37.320Z,5.18
2023-08-01T04:30:06.225Z,5.47
2023-08-01T04:32:34.830Z,5.50
2023-08-01T04:35:03.422Z,5.50
2023-08-01T04:37:31.989Z,5.45
2023-08-01T04:40:00.538Z,5.80
2023-08-01T04:42:29.545Z,6.03
2023-08-01T04:44:58.209Z,6.05
2023-08-01T04:47:26.653Z,6.45
2023-08-01T04:49:55.208Z,5.72
2023-08-01T04:52:23.886Z,6.30
2023-08-01T04:54:52.439Z,6.75
2023-08-01T04:57:21.179Z,7.18
2023-08-01T04:59:49.750Z,7.28
2023-08-01T05:02:18.103Z,7.22
2023-08-01T05:04:46.682Z,7.47
2023-08-01T05:07:15.385Z,7.15
2023-08-01T05:09:43.641Z,7.65
2023-08-01T05:12:12.263Z,7.57
2023-08-01T05:14:40.905Z,7.15
2023-08-01T05:17:09.374Z,7.47
2023-08-01T05:19:37.943Z,7.63
2023-08-01T05:22:07.104Z,7.50
2023-08-01T05:24:35.871Z,7.97
2023-08-01T05:27:04.908Z,7.68
2023-08-01T05:29:33.528Z,8.00
2023-08-01T05:32:02.076Z,7.82
2023-08-01T05:34:29.983Z,7.38
2023-08-01T05:36:58.076Z,7.50
2023-08-01T05:39:26.692Z,7.88
2023-08-01T05:41:55.326Z,7.00
2023-08-01T05:44:23.860Z,7.38
2023-08-01T05:46:52.557Z,7.72
2023-08-01T05:49:23.470Z,7.07
2023-08-01T05:51:52.238Z,6.57
2023-08-01T05:54:20.666Z,7.25
2023-08-01T05:56:49.438Z,6.80
2023-08-01T05:59:18.368Z,7.35
2023-08-01T06:01:47.102Z,7.20
2023-08-01T06:04:15.823Z,6.82
2023-08-01T06:06:44.532Z,7.40
2023-08-01T06:09:13.020Z,7.05
2023-08-01T06:11:41.685Z,6.90
2023-08-01T06:14:10.231Z,7.00
2023-08-01T06:16:39.464Z,7.28
2023-08-01T06:19:08.219Z,6.97
2023-08-01T06:21:37.099Z,7.20
2023-08-01T06:24:06.446Z,6.95
2023-08-01T06:26:35.030Z,6.75
2023-08-01T06:29:03.542Z,7.03
2023-08-01T06:31:32.155Z,7.25
2023-08-01T06:34:00.799Z,7.63
2023-08-01T06:36:29.389Z,6.32
2023-08-01T06:38:57.950Z,6.70
2023-08-01T06:41:26.672Z,6.72
2023-08-01T06:43:55.269Z,6.55
2023-08-01T06:46:23.800Z,6.65
2023-08-01T06:48:52.513Z,6.18
2023-08-01T06:51:21.116Z,7.05
2023-08-01T06:53:49.723Z,6.85
2023-08-01T06:56:18.312Z,6.97
2023-08-01T06:58:47.102Z,6.78
2023-08-01T07:01:15.782Z,6.57
2023-08-01T07:03:44.439Z,7.78
2023-08-01T07:06:13.233Z,6.88
2023-08-01T07:08:41.836Z,6.28
2023-08-01T07:11:10.548Z,7.38
2023-08-01T07:13:39.138Z,6.85
2023-08-01T07:16:07.810Z,7.28
2023-08-01T07:18:36.478Z,6.95
2023-08-01T07:21:07.015Z,7.10
2023-08-01T07:23:38.126Z,6.85
2023-08-01T07:26:06.992Z,7.03
2023-08-01T07:28:35.623Z,6.90
2023-08-01T07:31:07.187Z,7.10
2023-08-01T07:33:37.284Z,6.88
2023-08-01T07:36:06.228Z,6.93
2023-08-01T07:38:34.612Z,6.22
2023-08-01T07:41:07.504Z,7.00
2023-08-01T07:43:36.136Z,7.20
2023-08-01T07:46:04.728Z,6.47
2023-08-01T07:48:33.464Z,6.93
2023-08-01T07:51:02.272Z,6.82
2023-08-01T07:53:30.854Z,6.75
2023-08-01T07:55:59.239Z,6.40
2023-08-01T07:58:27.839Z,6.30
2023-08-01T08:00:56.594Z,6.22
2023-08-01T08:03:26.719Z,6.50
2023-08-01T08:05:54.739Z,6.88
2023-08-01T08:08:23.334Z,6.53
2023-08-01T08:10:51.876Z,6.45
2023-08-01T08:13:20.450Z,7.22
2023-08-01T08:15:49.159Z,6.72
2023-08-01T08:18:20.318Z,6.88
2023-08-01T08:20:49.267Z,6.57
2023-08-01T08:23:18.074Z,6.65
2023-08-01T08:25:49.677Z,6.63
2023-08-01T08:28:19.223Z,7.20
2023-08-01T08:30:49.092Z,7.35
2023-08-01T08:33:26.603Z,6.85
2023-08-01T08:35:55.234Z,7.03
2023-08-01T08:38:23.901Z,6.95
2023-08-01T08:41:17.027Z,7.22
2023-08-01T08:43:46.980Z,7.70
2023-08-01T08:46:18.767Z,7.53
2023-08-01T08:48:48.320Z,7.13
2023-08-01T08:51:17.995Z,6.90
2023-08-01T08:53:47.778Z,7.63
2023-08-01T08:56:17.660Z,7.30
2023-08-01T08:58:49.217Z,7.15
2023-08-01T09:01:19.783Z,7.10
2023-08-01T09:03:48.639Z,7.47
2023-08-01T09:06:26.646Z,7.13
2023-08-01T09:09:17.478Z,7.18
2023-08-01T09:11:50.079Z,6.97
2023-08-01T09:14:19.541Z,7.00
2023-08-01T09:16:49.718Z,7.53
2023-08-01T09:19:23.265Z,7.78
2023-08-01T09:21:53.444Z,7.50
2023-08-01T09:24:23.617Z,7.70
2023-08-01T09:26:52.478Z,7.75
2023-08-01T09:29:22.904Z,7.72
2023-08-01T09:31:52.094Z,8.35
2023-08-01T09:34:23.316Z,8.02
2023-08-01T09:36:52.871Z,8.77
2023-08-01T09:39:23.476Z,8.02
2023-08-01T09:41:59.681Z,8.02
2023-08-01T09:44:29.879Z,8.35
2023-08-01T09:47:10.907Z,7.70
2023-08-01T09:49:54.785Z,7.68
2023-08-01T09:52:30.861Z,8.18
2023-08-01T09:54:59.525Z,8.15
2023-08-01T09:57:32.362Z,7.85
2023-08-01T10:00:01.915Z,7.07
2023-08-01T10:02:35.102Z,7.53
2023-08-01T10:07:34.439Z,6.53
2023-08-01T10:10:04.146Z,7.15
2023-08-01T10:12:33.913Z,7.13
2023-08-01T10:15:03.235Z,7.22
2023-08-01T10:17:33.556Z,7.32
2023-08-01T10:20:02.781Z,7.10
2023-08-01T10:22:31.865Z,7.13
2023-08-01T10:25:01.082Z,7.32
2023-08-01T10:27:29.676Z,6.72
2023-08-01T10:30:03.082Z,6.78
2023-08-01T10:32:39.586Z,6.95
2023-08-01T10:35:11.722Z,7.38
2023-08-01T10:37:46.876Z,7.40
2023-08-01T10:40:16.635Z,7.80
2023-08-01T10:42:47.180Z,6.40
2023-08-01T10:45:30.674Z,7.45
2023-08-01T10:48:13.616Z,7.40
2023-08-01T10:50:42.769Z,7.50
2023-08-01T10:53:12.746Z,7.47
2023-08-01T10:55:51.232Z,7.47
2023-08-01T10:58:19.847Z,6.80
2023-08-01T11:00:48.451Z,6.40
2023-08-01T11:03:18.224Z,7.00
2023-08-01T11:05:47.044Z,7.05
2023-08-01T11:08:15.540Z,7.30
2023-08-01T11:10:44.212Z,7.25
2023-08-01T11:13:14.565Z,7.20
2023-08-01T11:15:43.303Z,6.72
2023-08-01T11:18:12.481Z,7.10
2023-08-01T11:20:42.652Z,7.40
2023-08-01T11:23:11.926Z,7.38
2023-08-01T11:25:41.447Z,7.10
2023-08-01T11:28:13.589Z,7.68
2023-08-01T11:30:42.816Z,7.35
2023-08-01T11:33:25.581Z,7.38
2023-08-01T11:36:04.576Z,7.43
2023-08-01T11:38:35.798Z,7.38
2023-08-01T11:41:06.552Z,7.57
2023-08-01T11:43:45.212Z,8.15
2023-08-01T11:46:15.950Z,8.10
2023-08-01T11:48:52.714Z,6.85
2023-08-01T11:51:21.396Z,7.63
2023-08-01T11:54:00.182Z,7.63
2023-08-01T11:56:28.937Z,7.10
2023-08-01T11:58:57.690Z,7.07
2023-08-01T12:01:26.356Z,6.85
2023-08-01T12:03:56.738Z,6.97
2023-08-01T12:06:26.333Z,6.90
2023-08-01T12:08:55.988Z,6.82
2023-08-01T12:11:32.758Z,7.05
2023-08-01T12:14:17.284Z,6.60
2023-08-01T12:16:48.679Z,6.90
2023-08-01T12:19:21.975Z,6.75
2023-08-01T12:21:51.729Z,6.90
2023-08-01T12:24:20.524Z,6.88
2023-08-01T12:26:48.932Z,6.63
2023-08-01T12:29:17.531Z,7.10
2023-08-01T12:31:46.333Z,6.93
2023-08-01T12:34:14.971Z,7.07
2023-08-01T12:36:43.981Z,6.90
2023-08-01T12:39:14.052Z,6.20
2023-08-01T12:41:42.783Z,6.25
2023-08-01T12:44:11.397Z,7.07
2023-08-01T12:46:41.837Z,6.97
2023-08-01T12:49:10.690Z,6.80
2023-08-01T12:51:39.382Z,6.85
2023-08-01T12:54:08.563Z,7.07
2023-08-01T12:56:36.639Z,6.70
2023-08-01T12:59:06.286Z,7.05
2023-08-01T13:01:34.948Z,6.93
2023-08-01T13:04:03.417Z,6.80
2023-08-01T13:06:32.042Z,7.18
2023-08-01T13:09:01.339Z,6.50
2023-08-01T13:11:29.975Z,6.75
2023-08-01T13:13:58.518Z,6.50
2023-08-01T13:16:27.339Z,6.35
2023-08-01T13:18:57.211Z,6.25
2023-08-01T13:21:25.972Z,6.30
2023-08-01T13:23:54.869Z,6.13
2023-08-01T13:26:23.609Z,5.82
2023-08-01T13:28:52.186Z,5.97
2023-08-01T13:31:20.724Z,6.22
2023-08-01T13:33:49.563Z,6.05
2023-08-01T13:36:20.005Z,6.05
2023-08-01T13:38:48.632Z,6.25
2023-08-01T13:41:17.559Z,6.20
2023-08-01T13:43:46.116Z,6.30
2023-08-01T13:48:56.338Z,6.25
2023-08-01T13:51:24.765Z,6.40
2023-08-01T13:53:53.426Z,6.32
2023-08-01T13:56:22.220Z,5.88
2023-08-01T13:58:50.757Z,6.75
2023-08-01T14:01:20.975Z,5.88
2023-08-01T14:03:49.803Z,6.55
2023-08-01T14:06:18.506Z,6.85
2023-08-01T14:08:47.105Z,6.88
2023-08-01T14:11:15.786Z,6.28
2023-08-01T14:13:44.470Z,6.15
2023-08-01T14:16:13.081Z,6.43
2023-08-01T14:18:41.747Z,6.70
2023-08-01T14:21:10.481Z,6.47
2023-08-01T14:23:40.709Z,6.40
2023-08-01T14:26:09.242Z,6.60
2023-08-01T14:28:37.713Z,5.53
2023-08-01T14:31:07.325Z,6.05
2023-08-01T14:33:36.411Z,5.43
2023-08-01T14:36:05.169Z,5.22
2023-08-01T14:38:33.933Z,5.70
2023-08-01T14:41:14.476Z,5.40
2023-08-01T14:43:51.243Z,5.03
2023-08-01T14:46:19.940Z,5.10
2023-08-01T14:48:48.097Z,5.32
2023-08-01T14:51:16.793Z,5.13
2023-08-01T14:53:45.436Z,4.88
2023-08-01T14:56:14.140Z,5.07
2023-08-01T14:58:43.022Z,5.20
2023-08-01T15:01:16.082Z,4.70
2023-08-01T15:06:13.302Z,4.15
2023-08-01T15:08:42.327Z,4.18
2023-08-01T15:11:11.427Z,4.47
2023-08-01T15:13:40.194Z,4.47
2023-08-01T15:16:13.759Z,4.38
2023-08-01T15:18:43.469Z,3.92
2023-08-01T15:21:12.425Z,4.22
2023-08-01T15:23:41.248Z,3.72
2023-08-01T15:26:09.870Z,3.80
2023-08-01T15:28:38.748Z,3.83
2023-08-01T15:31:09.461Z,4.07
2023-08-01T15:33:40.377Z,3.50
2023-08-01T15:36:10.352Z,4.50
2023-08-01T15:38:40.690Z,3.42
2023-08-01T15:41:12.694Z,3.42
2023-08-01T15:43:42.812Z,4.20
2023-08-01T15:46:12.209Z,3.80
2023-08-01T15:48:41.645Z,3.55
2023-08-01T15:51:10.429Z,3.47
2023-08-01T15:53:39.450Z,3.60
2023-08-01T15:56:10.732Z,3.30
2023-08-01T15:58:40.556Z,3.58
2023-08-01T16:01:12.458Z,3.60
2023-08-01T16:03:43.043Z,3.28
2023-08-01T16:06:12.613Z,3.70
2023-08-01T16:08:41.191Z,3.80
2023-08-01T16:11:09.848Z,3.35
2023-08-01T16:13:38.528Z,3.38
2023-08-01T16:16:08.455Z,3.40
2023-08-01T16:18:36.949Z,3.65
2023-08-01T16:21:05.550Z,3.35
2023-08-01T16:23:34.221Z,3.72
2023-08-01T16:26:04.829Z,3.70
2023-08-01T16:28:33.449Z,3.42
2023-08-01T16:31:02.110Z,3.60
2023-08-01T16:33:30.654Z,3.83
2023-08-01T16:35:59.203Z,4.50
2023-08-01T16:38:27.813Z,3.45
2023-08-01T16:40:56.248Z,3.45
2023-08-01T16:43:24.810Z,3.60
2023-08-01T16:45:53.387Z,3.78
2023-08-01T16:48:21.568Z,3.15
2023-08-01T16:50:50.136Z,3.20
2023-08-01T16:53:18.783Z,3.50
2023-08-01T16:55:47.502Z,3.03
2023-08-01T16:58:15.697Z,3.65
2023-08-01T17:00:44.301Z,3.13
2023-08-01T17:03:12.890Z,3.70
2023-08-01T17:05:41.342Z,3.53
2023-08-01T17:08:09.936Z,3.47
2023-08-01T17:10:38.533Z,3.30
2023-08-01T17:13:07.066Z,3.30
2023-08-01T17:15:35.987Z,3.40
2023-08-01T17:18:04.644Z,3.25
2023-08-01T17:20:38.563Z,3.22
2023-08-01T17:23:07.700Z,3.25
2023-08-01T17:25:36.213Z,3.25
2023-08-01T17:28:04.905Z,3.83
2023-08-01T17:30:33.465Z,3.30
2023-08-01T17:33:03.381Z,3.30
2023-08-01T17:35:31.982Z,3.33
2023-08-01T17:38:00.513Z,3.58
2023-08-01T17:40:29.151Z,3.50
2023-08-01T17:42:57.832Z,3.47
2023-08-01T17:45:26.701Z,3.25
2023-08-01T17:47:56.067Z,3.20
2023-08-01T17:50:26.490Z,3.60
2023-08-01T17:52:55.055Z,4.07
2023-08-01T17:55:23.576Z,3.50
2023-08-01T17:57:52.688Z,2.95
2023-08-01T18:00:22.088Z,3.40
2023-08-01T18:02:51.103Z,3.38
2023-08-01T18:05:22.504Z,3.38
2023-08-01T18:07:51.018Z,3.40
2023-08-01T18:10:19.758Z,3.80
2023-08-01T18:12:50.271Z,3.22
2023-08-01T18:15:18.879Z,3.00
2023-08-01T18:17:47.525Z,2.80
2023-08-01T18:20:16.342Z,2.50
2023-08-01T18:22:46.096Z,2.47
2023-08-01T18:25:14.914Z,2.72
2023-08-01T18:27:43.432Z,2.75
2023-08-01T18:30:12.318Z,2.42
2023-08-01T18:32:40.882Z,3.08
2023-08-01T18:35:09.657Z,2.80
2023-08-01T18:37:38.330Z,2.85
2023-08-01T18:40:07.574Z,2.70
2023-08-01T18:42:36.128Z,2.67
2023-08-01T18:45:07.856Z,2.75
2023-08-01T18:47:36.807Z,2.45
2023-08-01T18:50:05.522Z,3.15
2023-08-01T18:52:35.072Z,2.45
2023-08-01T18:55:03.747Z,2.60
2023-08-01T18:57:32.224Z,2.65
2023-08-01T19:00:00.777Z,2.60
2023-08-01T19:02:29.468Z,2.85
2023-08-01T19:04:58.084Z,2.50
2023-08-01T19:07:26.793Z,2.85
2023-08-01T19:09:55.407Z,2.55
2023-08-01T19:12:24.336Z,2.75
2023-08-01T19:14:52.924Z,2.40
2023-08-01T19:17:21.468Z,2.47
2023-08-01T19:19:50.017Z,2.30
2023-08-01T19:22:19.197Z,2.50
2023-08-01T19:24:47.624Z,2.40
2023-08-01T19:27:15.557Z,2.78
2023-08-01T19:29:44.368Z,2.17
2023-08-01T19:32:13.055Z,3.13
2023-08-01T19:34:41.589Z,2.83
2023-08-01T19:37:10.126Z,3.00
2023-08-01T19:39:39.444Z,2.90
2023-08-01T19:42:09.117Z,2.80
2023-08-01T19:44:38.224Z,2.78
2023-08-01T19:47:07.053Z,3.00
2023-08-01T19:49:35.641Z,2.45
2023-08-01T19:52:04.968Z,2.75
2023-08-01T19:54:34.302Z,2.60
2023-08-01T19:57:02.817Z,2.47
2023-08-01T19:59:31.417Z,2.50
2023-08-01T20:01:59.791Z,2.03
2023-08-01T20:04:28.520Z,2.63
2023-08-01T20:06:57.340Z,2.20
2023-08-01T20:09:25.875Z,2.35
2023-08-01T20:11:54.499Z,2.20
2023-08-01T20:14:23.166Z,2.53
2023-08-01T20:16:51.814Z,2.50
2023-08-01T20:19:24.422Z,2.78
2023-08-01T20:21:55.589Z,2.60
2023-08-01T20:24:24.541Z,2.70
2023-08-01T20:26:53.190Z,3.42
2023-08-01T20:29:21.744Z,2.55
2023-08-01T20:31:50.429Z,2.60
2023-08-01T20:34:18.425Z,2.60
2023-08-01T20:36:46.937Z,2.28
2023-08-01T20:39:15.660Z,2.47
2023-08-01T20:41:45.741Z,2.20
2023-08-01T20:44:14.280Z,3.30
2023-08-01T20:46:43.139Z,2.72
2023-08-01T20:49:11.944Z,2.20
2023-08-01T20:51:40.552Z,2.30
2023-08-01T20:54:09.680Z,2.00
2023-08-01T20:56:39.191Z,2.25
2023-08-01T20:59:08.175Z,2.03
2023-08-01T21:01:36.826Z,2.20
2023-08-01T21:04:05.510Z,2.10
2023-08-01T21:06:34.114Z,2.33
2023-08-01T21:09:05.341Z,2.20
2023-08-01T21:11:35.499Z,1.90
2023-08-01T21:14:04.051Z,2.20
2023-08-01T21:16:32.450Z,2.05
2023-08-01T21:19:01.554Z,2.00
2023-08-01T21:21:30.432Z,2.20
2023-08-01T21:23:59.305Z,1.95
2023-08-01T21:26:27.908Z,2.28
2023-08-01T21:28:56.448Z,2.20
2023-08-01T21:31:25.373Z,2.10
2023-08-01T21:33:54.101Z,1.90
2023-08-01T21:36:22.778Z,2.53
2023-08-01T21:38:51.372Z,2.47
2023-08-01T21:41:20.303Z,2.40
2023-08-01T21:43:48.953Z,2.00
2023-08-01T21:46:17.476Z,2.30
2023-08-01T21:48:46.136Z,2.05
2023-08-01T21:51:14.691Z,2.72
2023-08-01T21:53:43.101Z,2.50
2023-08-01T21:56:11.678Z,2.30
2023-08-01T21:58:40.295Z,2.40
2023-08-01T22:01:08.911Z,2.33
2023-08-01T22:03:37.437Z,2.60
2023-08-01T22:06:06.188Z,2.42
2023-08-01T22:08:34.744Z,3.10
2023-08-01T22:11:03.298Z,2.38
2023-08-01T22:13:31.947Z,2.25
2023-08-01T22:16:00.561Z,2.35
2023-08-01T22:18:29.251Z,2.20
2023-08-01T22:20:59.236Z,2.45
2023-08-01T22:23:28.155Z,2.08
2023-08-01T22:25:57.111Z,2.25
2023-08-01T22:28:25.878Z,1.98
2023-08-01T22:30:54.515Z,2.25
2023-08-01T22:33:23.184Z,2.47
2023-08-01T22:35:52.154Z,2.10
2023-08-01T22:38:21.024Z,2.03
2023-08-01T22:40:49.634Z,2.13
2023-08-01T22:43:18.203Z,2.22
2023-08-01T22:45:46.614Z,2.17
2023-08-01T22:48:15.202Z,2.20
2023-08-01T22:50:43.842Z,2.20
2023-08-01T22:53:12.378Z,2.17
2023-08-01T22:55:41.046Z,2.30
2023-08-01T22:58:09.563Z,2.30
2023-08-01T23:00:38.224Z,2.25
2023-08-01T23:03:06.902Z,2.15
2023-08-01T23:05:35.604Z,2.53
2023-08-01T23:08:04.494Z,2.38
2023-08-01T23:10:43.663Z,2.20
2023-08-01T23:13:13.159Z,2.28
2023-08-01T23:15:41.781Z,2.70
2023-08-01T23:18:10.372Z,2.47
2023-08-01T23:20:38.959Z,2.58
2023-08-01T23:23:07.587Z,2.80
2023-08-01T23:25:36.455Z,2.70
2023-08-01T23:28:05.051Z,2.50
2023-08-01T23:30:33.681Z,2.40
2023-08-01T23:33:04.206Z,2.85
2023-08-01T23:35:33.117Z,2.67
2023-08-01T23:38:01.677Z,3.03
2023-08-01T23:40:31.002Z,2.40
2023-08-01T23:42:59.552Z,2.80
2023-08-01T23:45:27.922Z,3.00
2023-08-01T23:47:56.604Z,3.10
2023-08-01T23:50:25.473Z,2.75
2023-08-01T23:52:54.024Z,2.63
2023-08-01T23:55:22.598Z,3.00
2023-08-01T23:57:54.061Z,2.63
